createdAt,value
2018-11-27T00:02:27.408Z,333.17
2018-11-27T00:04:58.926Z,331.57
2018-11-27T00:07:28.420Z,334.32
2018-11-27T00:09:58.489Z,327.87
2018-11-27T00:25:32.282Z,335.73
2018-11-27T00:28:01.843Z,318.33
2018-11-27T00:30:31.275Z,324.00
2018-11-27T00:33:00.720Z,317.40
2018-11-27T00:35:30.213Z,325.98
2018-11-27T00:37:59.779Z,324.18
2018-11-27T00:40:29.193Z,331.65
2018-11-27T00:42:58.670Z,327.52
2018-11-27T00:45:28.166Z,333.80
2018-11-27T00:47:58.642Z,331.20
2018-11-27T00:50:29.200Z,321.75
2018-11-27T00:52:58.680Z,322.10
2018-11-27T00:55:28.227Z,333.40
2018-11-27T00:57:57.719Z,334.73
2018-11-27T01:00:27.322Z,327.62
2018-11-27T01:02:56.850Z,341.30
2018-11-27T01:05:26.408Z,336.07
2018-11-27T01:07:56.870Z,326.62
2018-11-27T01:10:26.879Z,334.70
2018-11-27T01:12:56.321Z,331.38
2018-11-27T01:15:25.882Z,330.95
2018-11-27T01:17:58.544Z,320.05
2018-11-27T01:20:28.734Z,329.20
2018-11-27T01:22:58.192Z,334.87
2018-11-27T01:25:27.604Z,333.95
2018-11-27T01:27:57.126Z,329.15
2018-11-27T01:30:26.727Z,330.70
2018-11-27T01:32:56.318Z,327.65
2018-11-27T01:35:25.834Z,337.38
2018-11-27T01:37:55.457Z,324.62
2018-11-27T01:40:27.521Z,330.40
2018-11-27T01:42:57.845Z,337.38
2018-11-27T01:45:27.434Z,328.80
2018-11-27T01:47:57.052Z,336.05
2018-11-27T01:50:26.696Z,337.27
2018-11-27T01:52:56.169Z,341.23
2018-11-27T01:55:25.747Z,334.83
2018-11-27T01:57:55.190Z,343.77
2018-11-27T02:00:26.955Z,333.85
2018-11-27T02:02:56.942Z,335.57
2018-11-27T02:05:27.514Z,333.50
2018-11-27T02:07:57.100Z,336.20
2018-11-27T02:10:27.772Z,328.62
2018-11-27T02:13:01.121Z,334.43
2018-11-27T02:15:28.852Z,332.18
2018-11-27T02:17:58.631Z,335.50
2018-11-27T02:20:28.323Z,335.95
2018-11-27T02:22:58.023Z,335.48
2018-11-27T02:25:29.042Z,332.70
2018-11-27T02:27:59.557Z,329.60
2018-11-27T02:30:29.395Z,330.50
2018-11-27T02:32:58.870Z,319.15
2018-11-27T02:35:28.482Z,329.23
2018-11-27T02:37:58.936Z,322.50
2018-11-27T02:40:28.561Z,333.87
2018-11-27T02:43:00.005Z,324.90
2018-11-27T02:45:29.624Z,322.35
2018-11-27T02:48:00.139Z,328.98
2018-11-27T02:50:29.664Z,322.12
2018-11-27T02:53:00.201Z,310.50
2018-11-27T02:55:31.899Z,311.98
2018-11-27T02:58:02.066Z,312.42
2018-11-27T03:00:33.643Z,314.17
2018-11-27T03:03:03.250Z,311.90
2018-11-27T03:05:35.257Z,305.77
2018-11-27T03:08:05.955Z,311.40
2018-11-27T03:10:36.516Z,308.87
2018-11-27T03:13:07.366Z,312.42
2018-11-27T03:15:38.983Z,312.98
2018-11-27T03:18:08.804Z,310.88
2018-11-27T03:20:38.462Z,294.37
2018-11-27T03:23:08.825Z,299.05
2018-11-27T03:25:38.560Z,298.18
2018-11-27T03:28:08.490Z,301.85
2018-11-27T03:30:38.532Z,297.60
2018-11-27T03:33:08.598Z,302.98
2018-11-27T03:35:38.548Z,303.62
2018-11-27T03:38:08.320Z,299.12
2018-11-27T03:40:38.160Z,293.60
2018-11-27T03:43:07.783Z,300.52
2018-11-27T03:45:38.008Z,296.12
2018-11-27T03:48:08.777Z,287.33
2018-11-27T03:50:38.356Z,287.12
2018-11-27T03:53:07.997Z,294.18
2018-11-27T03:55:37.999Z,289.17
2018-11-27T03:58:09.539Z,287.12
2018-11-27T04:00:43.580Z,292.92
2018-11-27T04:03:14.902Z,291.73
2018-11-27T04:05:45.160Z,288.73
2018-11-27T04:08:14.979Z,287.65
2018-11-27T04:10:44.845Z,278.30
2018-11-27T04:13:16.734Z,288.42
2018-11-27T04:15:47.488Z,290.92
2018-11-27T04:18:17.052Z,292.90
2018-11-27T04:20:46.542Z,287.12
2018-11-27T04:23:16.187Z,285.90
2018-11-27T04:38:48.242Z,295.25
2018-11-27T04:41:18.792Z,288.93
2018-11-27T04:43:48.399Z,287.45
2018-11-27T04:46:18.153Z,285.77
2018-11-27T04:48:48.716Z,293.00
2018-11-27T04:51:19.441Z,293.02
2018-11-27T04:53:49.036Z,289.48
2018-11-27T04:56:19.342Z,289.70
2018-11-27T04:58:50.150Z,280.42
2018-11-27T05:01:19.640Z,279.87
2018-11-27T05:03:49.219Z,279.48
2018-11-27T05:06:19.001Z,283.40
2018-11-27T05:08:50.850Z,288.12
2018-11-27T05:11:20.483Z,282.77
2018-11-27T05:13:49.975Z,286.55
2018-11-27T05:16:19.948Z,288.73
2018-11-27T05:18:51.358Z,280.75
2018-11-27T05:21:20.980Z,280.75
2018-11-27T05:23:51.087Z,285.38
2018-11-27T05:26:20.759Z,284.32
2018-11-27T05:28:50.383Z,287.20
2018-11-27T05:31:19.987Z,282.70
2018-11-27T05:33:49.832Z,281.47
2018-11-27T05:36:19.625Z,287.30
2018-11-27T05:38:49.308Z,286.73
2018-11-27T05:41:18.934Z,273.62
2018-11-27T05:43:49.420Z,269.77
2018-11-27T05:46:20.316Z,286.55
2018-11-27T05:48:49.911Z,277.70
2018-11-27T06:04:27.166Z,282.98
2018-11-27T06:06:58.944Z,278.32
2018-11-27T06:09:29.198Z,299.75
2018-11-27T06:11:58.795Z,278.85
2018-11-27T06:14:28.473Z,272.75
2018-11-27T06:16:58.866Z,279.35
2018-11-27T06:19:28.481Z,290.02
2018-11-27T06:21:58.120Z,282.60
2018-11-27T06:24:27.714Z,279.80
2018-11-27T06:26:57.853Z,280.05
2018-11-27T06:29:29.357Z,291.42
2018-11-27T06:31:59.129Z,283.07
2018-11-27T06:34:28.671Z,281.30
2018-11-27T06:37:00.182Z,276.80
2018-11-27T06:39:29.920Z,286.90
2018-11-27T06:41:59.854Z,284.23
2018-11-27T06:44:29.338Z,277.40
2018-11-27T06:46:58.916Z,280.73
2018-11-27T06:49:29.431Z,272.65
2018-11-27T06:51:59.011Z,278.75
2018-11-27T06:54:28.639Z,280.45
2018-11-27T06:56:59.350Z,280.52
2018-11-27T06:59:29.051Z,278.48
2018-11-27T07:01:58.873Z,279.27
2018-11-27T07:04:29.057Z,284.73
2018-11-27T07:06:58.697Z,283.98
2018-11-27T07:09:29.358Z,283.17
2018-11-27T07:11:58.967Z,293.88
2018-11-27T07:14:28.729Z,291.52
2018-11-27T07:16:58.361Z,294.55
2018-11-27T07:19:27.879Z,299.85
2018-11-27T07:21:58.006Z,289.65
2018-11-27T07:24:27.608Z,293.48
2018-11-27T07:26:57.048Z,294.40
2018-11-27T07:29:26.558Z,287.23
2018-11-27T07:31:56.231Z,300.97
2018-11-27T07:34:26.012Z,298.60
2018-11-27T07:36:55.747Z,300.65
2018-11-27T07:39:25.365Z,298.70
2018-11-27T07:41:55.059Z,292.87
2018-11-27T07:44:24.804Z,301.47
2018-11-27T07:46:54.496Z,307.40
2018-11-27T07:49:24.066Z,312.10
2018-11-27T07:51:53.740Z,315.40
2018-11-27T07:54:23.245Z,319.00
2018-11-27T07:56:53.749Z,316.08
2018-11-27T07:59:23.289Z,321.93
2018-11-27T08:01:53.895Z,317.07
2018-11-27T08:04:24.794Z,320.60
2018-11-27T08:06:56.104Z,318.17
2018-11-27T08:09:27.161Z,321.07
2018-11-27T08:11:55.587Z,321.87
2018-11-27T08:14:25.329Z,330.25
2018-11-27T08:16:55.290Z,330.12
2018-11-27T08:19:25.895Z,330.80
2018-11-27T08:21:56.626Z,330.12
2018-11-27T08:24:26.374Z,333.45
2018-11-27T08:27:00.314Z,333.80
2018-11-27T08:29:30.790Z,334.83
2018-11-27T08:32:01.108Z,330.65
2018-11-27T08:34:31.938Z,330.85
2018-11-27T08:37:01.805Z,329.52
2018-11-27T08:39:31.465Z,328.88
2018-11-27T08:42:03.515Z,328.32
2018-11-27T08:44:35.087Z,320.57
2018-11-27T08:47:04.630Z,323.52
2018-11-27T08:49:34.141Z,320.82
2018-11-27T08:52:03.626Z,327.22
2018-11-27T08:54:33.913Z,322.70
2018-11-27T08:57:05.575Z,313.02
2018-11-27T08:59:35.135Z,325.40
2018-11-27T09:02:07.018Z,318.27
2018-11-27T09:04:36.546Z,326.13
2018-11-27T09:07:06.195Z,324.37
2018-11-27T09:09:36.720Z,323.93
2018-11-27T09:12:06.290Z,313.90
2018-11-27T09:14:36.814Z,317.23
2018-11-27T09:17:08.621Z,321.70
2018-11-27T09:19:38.055Z,325.70
2018-11-27T09:22:12.618Z,321.32
2018-11-27T09:24:37.129Z,308.43
2018-11-27T09:27:07.120Z,313.52
2018-11-27T09:29:37.634Z,316.87
2018-11-27T09:32:07.740Z,314.95
2018-11-27T09:34:38.138Z,319.27
2018-11-27T09:37:08.158Z,333.65
2018-11-27T09:39:39.211Z,340.40
2018-11-27T09:42:08.876Z,346.35
2018-11-27T09:44:38.466Z,346.05
2018-11-27T09:47:08.183Z,342.73
2018-11-27T09:49:38.129Z,349.98
2018-11-27T09:52:08.684Z,336.65
2018-11-27T09:54:38.660Z,352.80
2018-11-27T09:57:08.717Z,350.75
2018-11-27T09:59:38.476Z,347.07
2018-11-27T10:02:09.423Z,345.23
2018-11-27T10:04:39.298Z,359.43
2018-11-27T10:07:09.059Z,359.37
2018-11-27T10:09:56.305Z,359.92
2018-11-27T10:12:26.630Z,355.85
2018-11-27T10:14:57.689Z,363.50
2018-11-27T10:17:27.411Z,362.77
2018-11-27T10:19:57.374Z,374.50
2018-11-27T10:22:27.166Z,369.75
2018-11-27T10:24:58.257Z,381.63
2018-11-27T10:27:28.077Z,380.62
2018-11-27T10:29:58.886Z,380.73
2018-11-27T10:32:28.673Z,380.18
2018-11-27T10:34:59.038Z,401.50
2018-11-27T10:37:30.118Z,382.45
2018-11-27T10:39:59.795Z,380.20
2018-11-27T10:42:30.225Z,390.70
2018-11-27T10:45:01.001Z,387.75
2018-11-27T10:47:33.067Z,388.32
2018-11-27T10:50:02.705Z,393.05
2018-11-27T10:52:32.324Z,396.48
2018-11-27T10:55:02.012Z,404.75
2018-11-27T10:57:34.318Z,412.75
2018-11-27T11:00:26.833Z,426.15
2018-11-27T11:04:03.554Z,424.48
2018-11-27T11:06:34.800Z,429.45
2018-11-27T11:09:09.767Z,410.27
2018-11-27T11:11:41.947Z,420.52
2018-11-27T11:14:18.472Z,413.50
2018-11-27T11:16:49.794Z,401.10
2018-11-27T11:19:20.731Z,405.95
2018-11-27T11:21:50.365Z,398.02
2018-11-27T11:24:22.850Z,390.73
2018-11-27T11:26:55.103Z,388.57
2018-11-27T11:29:28.575Z,382.17
2018-11-27T11:32:01.445Z,384.45
2018-11-27T11:34:32.647Z,386.75
2018-11-27T11:37:04.330Z,390.18
2018-11-27T11:39:35.650Z,388.07
2018-11-27T11:42:05.476Z,382.25
2018-11-27T11:44:37.167Z,395.25
2018-11-27T11:47:07.086Z,392.23
2018-11-27T11:49:39.209Z,396.55
2018-11-27T11:52:11.075Z,411.37
2018-11-27T11:54:41.647Z,414.67
2018-11-27T11:57:13.129Z,413.35
2018-11-27T11:59:44.076Z,427.80
2018-11-27T12:02:15.838Z,440.50
2018-11-27T12:04:47.167Z,440.25
2018-11-27T12:07:18.046Z,443.87
2018-11-27T12:09:49.847Z,447.00
2018-11-27T12:12:19.449Z,443.77
2018-11-27T12:14:48.933Z,449.77
2018-11-27T12:17:20.320Z,443.43
2018-11-27T12:19:50.658Z,440.47
2018-11-27T12:23:43.840Z,433.80
2018-11-27T12:26:13.558Z,431.15
2018-11-27T12:28:44.755Z,420.30
2018-11-27T12:31:13.948Z,421.72
2018-11-27T12:33:44.883Z,411.55
2018-11-27T12:36:16.512Z,412.72
2018-11-27T12:38:46.298Z,405.05
2018-11-27T12:41:15.891Z,401.07
2018-11-27T12:43:46.666Z,413.65
2018-11-27T12:46:16.228Z,402.80
2018-11-27T12:48:45.901Z,398.85
2018-11-27T12:51:17.124Z,404.80
2018-11-27T12:53:46.949Z,419.85
2018-11-27T12:56:17.849Z,403.27
2018-11-27T12:58:55.792Z,407.47
2018-11-27T13:01:27.944Z,414.40
2018-11-27T13:03:59.162Z,405.10
2018-11-27T13:06:30.375Z,396.32
2018-11-27T13:09:00.093Z,404.68
2018-11-27T13:11:30.006Z,394.87
2018-11-27T13:14:02.527Z,392.00
2018-11-27T13:16:34.909Z,390.25
2018-11-27T13:19:07.578Z,392.35
2018-11-27T13:21:39.237Z,397.40
2018-11-27T13:24:10.674Z,388.32
2018-11-27T13:26:42.914Z,392.20
2018-11-27T13:29:16.571Z,396.70
2018-11-27T13:31:46.171Z,400.15
2018-11-27T13:34:19.173Z,393.75
2018-11-27T13:36:51.829Z,387.05
2018-11-27T13:39:32.498Z,396.23
2018-11-27T13:42:05.481Z,372.85
2018-11-27T13:44:37.850Z,369.80
2018-11-27T13:47:07.512Z,382.70
2018-11-27T13:49:38.418Z,374.07
2018-11-27T13:52:10.439Z,374.18
2018-11-27T13:54:41.463Z,370.90
2018-11-27T13:57:13.289Z,383.00
2018-11-27T13:59:45.265Z,379.50
2018-11-27T14:02:16.874Z,384.57
2018-11-27T14:04:46.464Z,372.90
2018-11-27T14:07:16.148Z,373.10
2018-11-27T14:09:46.411Z,369.15
2018-11-27T14:12:19.505Z,375.07
2018-11-27T14:14:49.430Z,377.10
2018-11-27T14:17:19.081Z,373.38
2018-11-27T14:19:49.253Z,364.72
2018-11-27T14:22:18.832Z,374.17
2018-11-27T14:24:50.630Z,374.55
2018-11-27T14:27:20.504Z,362.30
2018-11-27T14:29:51.780Z,362.65
2018-11-27T14:32:22.400Z,379.10
2018-11-27T14:34:53.019Z,373.07
2018-11-27T14:37:22.829Z,358.70
2018-11-27T14:39:52.741Z,373.02
2018-11-27T14:42:22.549Z,362.32
2018-11-27T14:44:52.298Z,389.55
2018-11-27T14:47:24.854Z,381.80
2018-11-27T14:49:54.427Z,366.17
2018-11-27T15:05:32.160Z,360.63
2018-11-27T15:08:01.991Z,357.25
2018-11-27T15:10:32.844Z,345.80
2018-11-27T15:13:02.796Z,350.82
2018-11-27T15:15:32.797Z,352.75
2018-11-27T15:18:02.422Z,358.50
2018-11-27T15:20:32.701Z,354.82
2018-11-27T15:23:02.328Z,353.83
2018-11-27T15:25:32.671Z,354.52
2018-11-27T15:28:02.323Z,348.73
2018-11-27T15:30:34.453Z,353.52
2018-11-27T15:33:04.161Z,350.97
2018-11-27T15:35:35.239Z,347.95
2018-11-27T15:38:06.403Z,334.15
2018-11-27T15:40:38.263Z,347.02
2018-11-27T15:43:07.993Z,344.02
2018-11-27T15:45:37.600Z,352.55
2018-11-27T15:48:10.119Z,345.80
2018-11-27T15:50:40.013Z,348.52
2018-11-27T15:53:09.665Z,351.95
2018-11-27T15:55:40.035Z,358.95
2018-11-27T15:58:11.896Z,353.50
2018-11-27T16:00:42.640Z,358.02
2018-11-27T16:03:13.028Z,356.55
2018-11-27T16:05:44.334Z,358.35
2018-11-27T16:08:14.650Z,359.40
2018-11-27T16:10:44.224Z,356.35
2018-11-27T16:13:13.729Z,352.65
2018-11-27T16:15:43.407Z,358.05
2018-11-27T16:18:13.445Z,364.60
2018-11-27T16:20:43.024Z,357.18
2018-11-27T16:23:14.542Z,353.27
2018-11-27T16:25:44.213Z,347.83
2018-11-27T16:28:13.682Z,347.37
2018-11-27T16:30:43.208Z,348.82
2018-11-27T16:33:14.345Z,350.65
2018-11-27T16:35:43.976Z,351.62
2018-11-27T16:38:15.819Z,361.03
2018-11-27T16:40:45.652Z,360.05
2018-11-27T16:43:15.151Z,357.70
2018-11-27T16:45:45.733Z,357.83
2018-11-27T16:48:15.299Z,362.70
2018-11-27T16:50:45.443Z,355.70
2018-11-27T16:53:15.664Z,362.68
2018-11-27T16:55:45.700Z,368.95
2018-11-27T16:58:16.274Z,376.60
2018-11-27T17:00:45.798Z,373.73
2018-11-27T17:03:16.915Z,369.00
2018-11-27T17:05:46.359Z,372.40
2018-11-27T17:08:16.137Z,382.48
2018-11-27T17:10:46.251Z,379.18
2018-11-27T17:13:16.532Z,372.60
2018-11-27T17:15:46.165Z,383.30
2018-11-27T17:22:13.655Z,377.27
2018-11-27T17:24:43.149Z,378.70
2018-11-27T17:27:12.721Z,374.90
2018-11-27T17:29:42.243Z,382.37
2018-11-27T17:32:11.735Z,373.30
2018-11-27T17:34:41.964Z,382.32
2018-11-27T17:37:11.498Z,373.35
2018-11-27T17:39:41.076Z,379.10
2018-11-27T17:42:10.569Z,381.20
2018-11-27T17:44:40.999Z,377.30
2018-11-27T17:47:10.479Z,380.92
2018-11-27T17:49:39.964Z,379.45
2018-11-27T17:52:09.475Z,376.80
2018-11-27T17:54:39.026Z,376.80
2018-11-27T17:57:08.589Z,368.45
2018-11-27T17:59:38.096Z,372.17
2018-11-27T18:02:07.735Z,368.25
2018-11-27T18:04:37.500Z,375.90
2018-11-27T18:07:07.789Z,369.35
2018-11-27T18:09:37.547Z,367.82
2018-11-27T18:12:07.246Z,371.60
2018-11-27T18:14:37.754Z,373.05
2018-11-27T18:17:07.561Z,362.10
2018-11-27T18:19:38.637Z,370.90
2018-11-27T18:22:09.389Z,379.00
2018-11-27T18:24:40.183Z,376.00
2018-11-27T18:40:15.062Z,370.95
2018-11-27T18:42:45.390Z,345.45
2018-11-27T18:45:27.300Z,354.32
2018-11-27T19:01:02.927Z,355.87
2018-11-27T19:03:33.435Z,360.70
2018-11-27T19:06:02.912Z,367.82
2018-11-27T19:08:32.969Z,360.50
2018-11-27T19:11:02.409Z,353.55
2018-11-27T19:13:32.948Z,362.27
2018-11-27T19:16:02.421Z,356.27
2018-11-27T19:18:32.611Z,356.07
2018-11-27T19:21:02.130Z,362.00
2018-11-27T19:23:32.472Z,353.50
2018-11-27T19:26:01.954Z,359.23
2018-11-27T19:28:32.143Z,358.27
2018-11-27T19:31:01.619Z,358.52
2018-11-27T19:33:31.068Z,360.05
2018-11-27T19:36:00.663Z,364.00
2018-11-27T19:38:32.152Z,363.93
2018-11-27T19:41:01.738Z,365.37
2018-11-27T19:43:31.302Z,369.65
2018-11-27T19:46:00.898Z,362.63
2018-11-27T19:48:30.461Z,360.10
2018-11-27T19:51:00.003Z,363.82
2018-11-27T19:53:30.469Z,364.63
2018-11-27T19:55:59.961Z,369.62
2018-11-27T19:58:29.517Z,364.05
2018-11-27T20:01:01.049Z,352.80
2018-11-27T20:03:30.540Z,353.27
2018-11-27T20:06:00.168Z,360.73
2018-11-27T20:08:29.601Z,358.70
2018-11-27T20:10:59.085Z,357.43
2018-11-27T20:13:30.544Z,350.05
2018-11-27T20:16:00.013Z,359.77
2018-11-27T20:18:29.513Z,360.75
2018-11-27T20:20:59.049Z,353.37
2018-11-27T20:23:28.634Z,363.85
2018-11-27T20:39:00.787Z,360.45
2018-11-27T20:41:31.050Z,346.57
2018-11-27T20:44:00.585Z,354.35
2018-11-27T20:46:30.096Z,354.68
2018-11-27T20:49:00.591Z,345.80
2018-11-27T20:51:30.173Z,350.13
2018-11-27T21:07:04.208Z,338.62
2018-11-27T21:09:35.998Z,346.48
2018-11-27T21:25:17.996Z,356.98
2018-11-27T21:27:56.736Z,341.48
2018-11-27T21:30:26.420Z,338.70
2018-11-27T21:32:56.142Z,338.27
2018-11-27T21:35:25.591Z,332.70
2018-11-27T21:37:55.038Z,332.73
2018-11-27T21:40:24.521Z,328.50
2018-11-27T21:42:54.381Z,335.13
2018-11-27T21:45:28.325Z,330.87
2018-11-27T21:47:58.776Z,337.90
2018-11-27T21:50:34.538Z,337.25
2018-11-27T21:53:04.077Z,333.57
2018-11-27T21:55:36.868Z,333.52
2018-11-27T21:58:06.722Z,332.23
2018-11-27T22:00:41.562Z,330.98
2018-11-27T22:03:12.263Z,335.30
2018-11-27T22:05:43.496Z,331.27
2018-11-27T22:08:13.002Z,327.30
2018-11-27T22:10:43.578Z,342.68
2018-11-27T22:13:14.494Z,348.32
2018-11-27T22:15:45.478Z,337.57
2018-11-27T22:18:15.163Z,343.87
2018-11-27T22:20:46.239Z,342.40
2018-11-27T22:23:15.854Z,347.27
2018-11-27T22:25:47.059Z,344.82
2018-11-27T22:28:17.143Z,344.68
2018-11-27T22:30:47.626Z,341.27
2018-11-27T22:33:17.223Z,332.92
2018-11-27T22:35:46.748Z,328.05
2018-11-27T22:38:16.266Z,338.02
2018-11-27T22:40:47.753Z,337.45
2018-11-27T22:43:18.333Z,325.17
2018-11-27T22:45:48.809Z,323.15
2018-11-27T22:48:20.216Z,333.65
2018-11-27T22:50:49.619Z,328.58
2018-11-27T22:53:19.644Z,327.73
2018-11-27T22:55:49.139Z,334.37
2018-11-27T22:58:18.686Z,331.00
2018-11-27T23:00:50.729Z,332.37
2018-11-27T23:03:24.790Z,330.23
2018-11-27T23:05:56.347Z,325.32
2018-11-27T23:08:27.438Z,325.75
2018-11-27T23:10:57.014Z,335.25
2018-11-27T23:13:26.620Z,330.43
2018-11-27T23:15:56.370Z,326.52
2018-11-27T23:18:26.083Z,328.35
2018-11-27T23:20:58.551Z,337.20
2018-11-27T23:23:28.059Z,336.65
2018-11-27T23:25:57.617Z,330.57
2018-11-27T23:28:27.276Z,332.65
2018-11-27T23:30:58.906Z,332.07
2018-11-27T23:33:30.682Z,331.30
2018-11-27T23:36:01.314Z,330.20
2018-11-27T23:38:30.856Z,325.80
2018-11-27T23:41:01.688Z,333.57
2018-11-27T23:43:31.833Z,326.37
2018-11-27T23:46:01.491Z,325.45
